Nippers Harbour, Canada
Current Conditions -  °F | °C
As of 4:16 PM on Saturday 25 Oct 2014 (Local Time) from CYDF Reporting Station
Light Rain Light Rain  
Wind Chill: 32°   Ceiling: 1700
Heat Index: 41°   Visibility: 6mi
Dew Point: 39°   Wind: 21mph
Humidity: 93%   Direction: 40°NE
Pressure: 29.57"   Gusts: NA
Location:  49.78°N, 55.87°W
Report Text: CYDF 251816Z 04018KT 6SM -RA BR OVC017 05/04 A2957 RMK SF8 SLP013
Loading
Personal Weather Stations






























Interactive Weather Map
Tropical Storm Tracking
New forecast layout! Learn more

10-Day Weather Forecast

Advertisements
Track Severe Weather on mobile